sensor_id;sensor_type;location;lat;lon;timestamp;P1;durP1;ratioP1;P2;durP2;ratioP2
2173;SDS011;1093;51.424;11.764;2023-04-15T00:00:57;11.77;;;9.13;;
2173;SDS011;1093;51.424;11.764;2023-04-15T00:03:24;9.70;;;7.60;;
2173;SDS011;1093;51.424;11.764;2023-04-15T00:05:51;8.97;;;7.30;;
2173;SDS011;1093;51.424;11.764;2023-04-15T00:08:18;8.90;;;7.20;;
2173;SDS011;1093;51.424;11.764;2023-04-15T00:10:44;10.50;;;7.43;;
2173;SDS011;1093;51.424;11.764;2023-04-15T00:13:11;9.33;;;7.57;;
2173;SDS011;1093;51.424;11.764;2023-04-15T00:15:39;10.43;;;7.50;;
2173;SDS011;1093;51.424;11.764;2023-04-15T00:18:08;8.60;;;6.90;;
2173;SDS011;1093;51.424;11.764;2023-04-15T00:20:34;9.73;;;7.50;;
2173;SDS011;1093;51.424;11.764;2023-04-15T00:23:02;12.10;;;8.20;;
2173;SDS011;1093;51.424;11.764;2023-04-15T00:25:29;9.53;;;8.43;;
2173;SDS011;1093;51.424;11.764;2023-04-15T00:27:56;7.90;;;7.00;;
2173;SDS011;1093;51.424;11.764;2023-04-15T00:30:23;11.20;;;8.30;;
2173;SDS011;1093;51.424;11.764;2023-04-15T00:32:50;11.30;;;8.30;;
2173;SDS011;1093;51.424;11.764;2023-04-15T00:35:18;10.27;;;8.00;;
2173;SDS011;1093;51.424;11.764;2023-04-15T00:37:45;8.87;;;6.73;;
2173;SDS011;1093;51.424;11.764;2023-04-15T00:40:12;11.00;;;8.67;;
2173;SDS011;1093;51.424;11.764;2023-04-15T00:42:42;12.27;;;9.37;;
2173;SDS011;1093;51.424;11.764;2023-04-15T00:45:09;12.70;;;7.20;;
2173;SDS011;1093;51.424;11.764;2023-04-15T00:47:36;9.47;;;7.67;;
2173;SDS011;1093;51.424;11.764;2023-04-15T00:50:06;10.47;;;8.93;;
2173;SDS011;1093;51.424;11.764;2023-04-15T00:52:35;10.00;;;8.37;;
2173;SDS011;1093;51.424;11.764;2023-04-15T00:55:02;9.13;;;6.93;;
2173;SDS011;1093;51.424;11.764;2023-04-15T00:57:30;7.83;;;6.67;;
2173;SDS011;1093;51.424;11.764;2023-04-15T00:59:57;9.33;;;6.63;;
2173;SDS011;1093;51.424;11.764;2023-04-15T01:02:25;9.33;;;8.17;;
2173;SDS011;1093;51.424;11.764;2023-04-15T01:04:52;9.80;;;7.87;;
2173;SDS011;1093;51.424;11.764;2023-04-15T01:07:19;8.00;;;7.03;;
2173;SDS011;1093;51.424;11.764;2023-04-15T01:09:48;9.13;;;7.90;;
2173;SDS011;1093;51.424;11.764;2023-04-15T01:12:14;10.00;;;7.10;;
2173;SDS011;1093;51.424;11.764;2023-04-15T01:14:42;7.93;;;7.13;;
2173;SDS011;1093;51.424;11.764;2023-04-15T01:17:09;8.60;;;7.67;;
2173;SDS011;1093;51.424;11.764;2023-04-15T01:19:36;8.23;;;6.77;;
2173;SDS011;1093;51.424;11.764;2023-04-15T01:22:03;9.40;;;7.47;;
2173;SDS011;1093;51.424;11.764;2023-04-15T01:24:30;9.23;;;7.03;;
2173;SDS011;1093;51.424;11.764;2023-04-15T01:26:59;9.60;;;7.17;;
2173;SDS011;1093;51.424;11.764;2023-04-15T01:29:26;8.90;;;7.27;;
2173;SDS011;1093;51.424;11.764;2023-04-15T01:31:54;10.70;;;6.67;;
2173;SDS011;1093;51.424;11.764;2023-04-15T01:34:22;10.37;;;7.73;;
2173;SDS011;1093;51.424;11.764;2023-04-15T01:36:49;9.97;;;8.20;;
2173;SDS011;1093;51.424;11.764;2023-04-15T01:39:17;12.53;;;9.00;;
2173;SDS011;1093;51.424;11.764;2023-04-15T01:41:44;9.63;;;8.57;;
2173;SDS011;1093;51.424;11.764;2023-04-15T01:44:12;9.90;;;8.00;;
2173;SDS011;1093;51.424;11.764;2023-04-15T01:46:39;12.27;;;8.67;;
2173;SDS011;1093;51.424;11.764;2023-04-15T01:49:05;13.00;;;9.23;;
2173;SDS011;1093;51.424;11.764;2023-04-15T01:51:35;13.93;;;9.50;;
2173;SDS011;1093;51.424;11.764;2023-04-15T01:54:03;11.20;;;9.13;;
2173;SDS011;1093;51.424;11.764;2023-04-15T01:56:30;11.93;;;9.00;;
2173;SDS011;1093;51.424;11.764;2023-04-15T01:58:57;11.60;;;9.03;;
2173;SDS011;1093;51.424;11.764;2023-04-15T02:01:25;11.10;;;8.67;;
2173;SDS011;1093;51.424;11.764;2023-04-15T02:03:52;14.77;;;9.47;;
2173;SDS011;1093;51.424;11.764;2023-04-15T02:06:19;12.60;;;10.30;;
2173;SDS011;1093;51.424;11.764;2023-04-15T02:08:45;10.80;;;8.40;;
2173;SDS011;1093;51.424;11.764;2023-04-15T02:11:12;11.00;;;7.77;;
2173;SDS011;1093;51.424;11.764;2023-04-15T02:13:39;12.47;;;8.97;;
2173;SDS011;1093;51.424;11.764;2023-04-15T02:16:14;10.00;;;8.67;;
2173;SDS011;1093;51.424;11.764;2023-04-15T02:18:43;11.57;;;8.47;;
2173;SDS011;1093;51.424;11.764;2023-04-15T02:21:10;13.00;;;8.30;;
2173;SDS011;1093;51.424;11.764;2023-04-15T02:23:37;11.67;;;8.63;;
2173;SDS011;1093;51.424;11.764;2023-04-15T02:26:03;10.13;;;8.23;;
2173;SDS011;1093;51.424;11.764;2023-04-15T02:28:30;11.70;;;8.10;;
2173;SDS011;1093;51.424;11.764;2023-04-15T02:30:57;11.17;;;8.60;;
2173;SDS011;1093;51.424;11.764;2023-04-15T02:33:24;15.53;;;8.60;;
2173;SDS011;1093;51.424;11.764;2023-04-15T02:35:52;9.57;;;8.23;;
2173;SDS011;1093;51.424;11.764;2023-04-15T02:38:19;12.63;;;9.03;;
2173;SDS011;1093;51.424;11.764;2023-04-15T02:40:45;17.07;;;10.20;;
2173;SDS011;1093;51.424;11.764;2023-04-15T02:43:13;11.07;;;8.10;;
2173;SDS011;1093;51.424;11.764;2023-04-15T02:45:41;10.50;;;9.00;;
2173;SDS011;1093;51.424;11.764;2023-04-15T02:48:08;9.67;;;7.53;;
2173;SDS011;1093;51.424;11.764;2023-04-15T02:50:35;12.73;;;9.50;;
2173;SDS011;1093;51.424;11.764;2023-04-15T02:53:05;9.10;;;7.30;;
2173;SDS011;1093;51.424;11.764;2023-04-15T02:55:32;12.73;;;8.97;;
2173;SDS011;1093;51.424;11.764;2023-04-15T02:57:59;10.67;;;7.60;;
2173;SDS011;1093;51.424;11.764;2023-04-15T03:03:03;11.30;;;8.43;;
2173;SDS011;1093;51.424;11.764;2023-04-15T03:05:31;9.73;;;7.80;;
2173;SDS011;1093;51.424;11.764;2023-04-15T03:07:58;10.70;;;7.70;;
2173;SDS011;1093;51.424;11.764;2023-04-15T03:10:27;13.13;;;8.70;;
2173;SDS011;1093;51.424;11.764;2023-04-15T03:12:53;11.93;;;8.97;;
2173;SDS011;1093;51.424;11.764;2023-04-15T03:15:20;9.37;;;7.90;;
2173;SDS011;1093;51.424;11.764;2023-04-15T03:17:47;12.30;;;9.33;;
2173;SDS011;1093;51.424;11.764;2023-04-15T03:20:14;14.47;;;9.40;;
2173;SDS011;1093;51.424;11.764;2023-04-15T03:22:41;15.50;;;11.33;;
2173;SDS011;1093;51.424;11.764;2023-04-15T03:25:08;11.23;;;8.60;;
2173;SDS011;1093;51.424;11.764;2023-04-15T03:27:36;11.73;;;9.83;;
2173;SDS011;1093;51.424;11.764;2023-04-15T03:30:03;12.90;;;9.47;;
2173;SDS011;1093;51.424;11.764;2023-04-15T03:32:31;11.50;;;9.80;;
2173;SDS011;1093;51.424;11.764;2023-04-15T03:34:58;16.60;;;9.87;;
2173;SDS011;1093;51.424;11.764;2023-04-15T03:37:25;15.60;;;11.40;;
2173;SDS011;1093;51.424;11.764;2023-04-15T03:39:51;15.00;;;12.27;;
2173;SDS011;1093;51.424;11.764;2023-04-15T03:42:18;13.20;;;10.00;;
2173;SDS011;1093;51.424;11.764;2023-04-15T03:44:46;12.57;;;9.13;;
2173;SDS011;1093;51.424;11.764;2023-04-15T03:47:12;17.10;;;10.20;;
2173;SDS011;1093;51.424;11.764;2023-04-15T03:49:39;14.03;;;9.73;;
2173;SDS011;1093;51.424;11.764;2023-04-15T03:52:06;14.23;;;9.60;;
2173;SDS011;1093;51.424;11.764;2023-04-15T03:54:33;11.00;;;8.60;;
2173;SDS011;1093;51.424;11.764;2023-04-15T03:56:59;11.50;;;8.30;;
2173;SDS011;1093;51.424;11.764;2023-04-15T03:59:26;10.10;;;7.80;;
2173;SDS011;1093;51.424;11.764;2023-04-15T04:01:54;9.77;;;7.50;;
2173;SDS011;1093;51.424;11.764;2023-04-15T04:04:21;12.80;;;8.60;;
2173;SDS011;1093;51.424;11.764;2023-04-15T04:06:47;12.20;;;8.43;;
2173;SDS011;1093;51.424;11.764;2023-04-15T04:09:14;11.80;;;8.57;;
2173;SDS011;1093;51.424;11.764;2023-04-15T04:11:41;11.23;;;8.27;;
2173;SDS011;1093;51.424;11.764;2023-04-15T04:14:09;10.70;;;8.77;;
2173;SDS011;1093;51.424;11.764;2023-04-15T04:16:36;13.60;;;9.70;;
2173;SDS011;1093;51.424;11.764;2023-04-15T04:19:04;15.87;;;10.93;;
2173;SDS011;1093;51.424;11.764;2023-04-15T04:21:31;12.10;;;8.73;;
2173;SDS011;1093;51.424;11.764;2023-04-15T04:23:59;14.20;;;8.97;;
2173;SDS011;1093;51.424;11.764;2023-04-15T04:26:25;11.80;;;9.23;;
2173;SDS011;1093;51.424;11.764;2023-04-15T04:28:52;14.53;;;9.70;;
2173;SDS011;1093;51.424;11.764;2023-04-15T04:31:19;18.00;;;10.37;;
2173;SDS011;1093;51.424;11.764;2023-04-15T04:33:46;14.30;;;9.37;;
2173;SDS011;1093;51.424;11.764;2023-04-15T04:36:14;13.77;;;9.60;;
2173;SDS011;1093;51.424;11.764;2023-04-15T04:38:41;13.30;;;9.10;;
2173;SDS011;1093;51.424;11.764;2023-04-15T04:41:07;10.83;;;9.10;;
2173;SDS011;1093;51.424;11.764;2023-04-15T04:43:34;12.67;;;8.67;;
2173;SDS011;1093;51.424;11.764;2023-04-15T04:46:01;11.33;;;8.20;;
2173;SDS011;1093;51.424;11.764;2023-04-15T04:48:27;11.17;;;7.93;;
2173;SDS011;1093;51.424;11.764;2023-04-15T04:50:54;12.13;;;8.50;;
2173;SDS011;1093;51.424;11.764;2023-04-15T04:53:22;13.50;;;8.60;;
2173;SDS011;1093;51.424;11.764;2023-04-15T04:55:49;11.93;;;8.53;;
2173;SDS011;1093;51.424;11.764;2023-04-15T04:58:15;14.87;;;8.20;;
2173;SDS011;1093;51.424;11.764;2023-04-15T05:00:42;10.63;;;7.90;;
2173;SDS011;1093;51.424;11.764;2023-04-15T05:03:09;10.53;;;7.73;;
2173;SDS011;1093;51.424;11.764;2023-04-15T05:05:38;13.20;;;8.27;;
2173;SDS011;1093;51.424;11.764;2023-04-15T05:08:05;13.13;;;8.40;;
2173;SDS011;1093;51.424;11.764;2023-04-15T05:10:33;11.90;;;8.50;;
2173;SDS011;1093;51.424;11.764;2023-04-15T05:13:00;11.43;;;8.20;;
2173;SDS011;1093;51.424;11.764;2023-04-15T05:15:26;10.67;;;8.07;;
2173;SDS011;1093;51.424;11.764;2023-04-15T05:17:53;14.27;;;8.87;;
2173;SDS011;1093;51.424;11.764;2023-04-15T05:20:20;11.83;;;8.17;;
2173;SDS011;1093;51.424;11.764;2023-04-15T05:22:46;12.30;;;8.13;;
2173;SDS011;1093;51.424;11.764;2023-04-15T05:25:13;10.83;;;7.20;;
2173;SDS011;1093;51.424;11.764;2023-04-15T05:27:41;7.87;;;6.60;;
2173;SDS011;1093;51.424;11.764;2023-04-15T05:30:08;12.00;;;7.00;;
2173;SDS011;1093;51.424;11.764;2023-04-15T05:32:35;8.90;;;6.80;;
2173;SDS011;1093;51.424;11.764;2023-04-15T05:35:02;10.63;;;7.77;;
2173;SDS011;1093;51.424;11.764;2023-04-15T05:37:29;10.03;;;6.73;;
2173;SDS011;1093;51.424;11.764;2023-04-15T05:39:55;9.23;;;7.03;;
2173;SDS011;1093;51.424;11.764;2023-04-15T05:42:22;12.33;;;7.23;;
2173;SDS011;1093;51.424;11.764;2023-04-15T05:44:50;8.90;;;6.70;;
2173;SDS011;1093;51.424;11.764;2023-04-15T05:47:17;12.37;;;6.97;;
2173;SDS011;1093;51.424;11.764;2023-04-15T05:49:44;10.63;;;6.70;;
2173;SDS011;1093;51.424;11.764;2023-04-15T05:52:11;11.70;;;8.40;;
2173;SDS011;1093;51.424;11.764;2023-04-15T05:54:38;12.73;;;7.20;;
2173;SDS011;1093;51.424;11.764;2023-04-15T05:57:05;10.53;;;7.50;;
2173;SDS011;1093;51.424;11.764;2023-04-15T05:59:32;9.87;;;6.90;;
2173;SDS011;1093;51.424;11.764;2023-04-15T06:02:00;8.13;;;6.30;;
2173;SDS011;1093;51.424;11.764;2023-04-15T06:04:27;9.70;;;7.17;;
2173;SDS011;1093;51.424;11.764;2023-04-15T06:06:54;7.70;;;6.90;;
2173;SDS011;1093;51.424;11.764;2023-04-15T06:09:20;8.03;;;6.10;;
2173;SDS011;1093;51.424;11.764;2023-04-15T06:11:47;7.30;;;6.40;;
2173;SDS011;1093;51.424;11.764;2023-04-15T06:14:14;8.80;;;6.63;;
2173;SDS011;1093;51.424;11.764;2023-04-15T06:16:40;8.43;;;6.57;;
2173;SDS011;1093;51.424;11.764;2023-04-15T06:19:08;10.17;;;6.83;;
2173;SDS011;1093;51.424;11.764;2023-04-15T06:21:36;9.60;;;7.40;;
2173;SDS011;1093;51.424;11.764;2023-04-15T06:24:03;10.03;;;7.30;;
2173;SDS011;1093;51.424;11.764;2023-04-15T06:26:30;9.20;;;6.90;;
2173;SDS011;1093;51.424;11.764;2023-04-15T06:28:57;7.47;;;6.23;;
2173;SDS011;1093;51.424;11.764;2023-04-15T06:31:23;9.97;;;6.97;;
2173;SDS011;1093;51.424;11.764;2023-04-15T06:33:50;8.07;;;5.17;;
2173;SDS011;1093;51.424;11.764;2023-04-15T06:36:18;9.83;;;7.13;;
2173;SDS011;1093;51.424;11.764;2023-04-15T06:38:45;9.87;;;6.27;;
2173;SDS011;1093;51.424;11.764;2023-04-15T06:41:12;11.27;;;5.97;;
2173;SDS011;1093;51.424;11.764;2023-04-15T06:43:39;8.03;;;5.77;;
2173;SDS011;1093;51.424;11.764;2023-04-15T06:46:05;12.07;;;6.63;;
2173;SDS011;1093;51.424;11.764;2023-04-15T06:48:32;7.30;;;5.67;;
2173;SDS011;1093;51.424;11.764;2023-04-15T06:50:59;11.93;;;6.33;;
2173;SDS011;1093;51.424;11.764;2023-04-15T06:53:27;8.07;;;6.57;;
2173;SDS011;1093;51.424;11.764;2023-04-15T06:55:53;6.43;;;5.00;;
2173;SDS011;1093;51.424;11.764;2023-04-15T06:58:20;10.50;;;6.40;;
2173;SDS011;1093;51.424;11.764;2023-04-15T07:00:47;8.00;;;6.17;;
2173;SDS011;1093;51.424;11.764;2023-04-15T07:03:14;6.73;;;5.37;;
2173;SDS011;1093;51.424;11.764;2023-04-15T07:05:41;12.37;;;10.77;;
2173;SDS011;1093;51.424;11.764;2023-04-15T07:08:07;8.63;;;5.70;;
2173;SDS011;1093;51.424;11.764;2023-04-15T07:10:35;5.10;;;4.37;;
2173;SDS011;1093;51.424;11.764;2023-04-15T07:13:02;8.37;;;5.40;;
2173;SDS011;1093;51.424;11.764;2023-04-15T07:15:29;5.93;;;5.33;;
2173;SDS011;1093;51.424;11.764;2023-04-15T07:17:56;6.60;;;4.90;;
2173;SDS011;1093;51.424;11.764;2023-04-15T07:20:22;5.40;;;4.90;;
2173;SDS011;1093;51.424;11.764;2023-04-15T07:22:49;7.03;;;5.13;;
2173;SDS011;1093;51.424;11.764;2023-04-15T07:25:16;6.70;;;4.00;;
2173;SDS011;1093;51.424;11.764;2023-04-15T07:27:44;6.10;;;4.80;;
2173;SDS011;1093;51.424;11.764;2023-04-15T07:30:11;4.83;;;4.10;;
2173;SDS011;1093;51.424;11.764;2023-04-15T07:32:38;6.23;;;5.60;;
2173;SDS011;1093;51.424;11.764;2023-04-15T07:35:05;6.37;;;4.40;;
2173;SDS011;1093;51.424;11.764;2023-04-15T07:37:32;6.03;;;5.30;;
2173;SDS011;1093;51.424;11.764;2023-04-15T07:39:59;6.90;;;4.90;;
2173;SDS011;1093;51.424;11.764;2023-04-15T07:42:25;7.80;;;5.20;;
2173;SDS011;1093;51.424;11.764;2023-04-15T07:44:54;6.43;;;4.90;;
2173;SDS011;1093;51.424;11.764;2023-04-15T07:47:22;7.07;;;4.90;;
2173;SDS011;1093;51.424;11.764;2023-04-15T07:49:48;5.60;;;4.70;;
2173;SDS011;1093;51.424;11.764;2023-04-15T07:52:15;8.73;;;6.23;;
2173;SDS011;1093;51.424;11.764;2023-04-15T07:54:42;8.60;;;5.20;;
2173;SDS011;1093;51.424;11.764;2023-04-15T07:57:08;7.80;;;5.20;;
2173;SDS011;1093;51.424;11.764;2023-04-15T07:59:35;8.20;;;5.30;;
2173;SDS011;1093;51.424;11.764;2023-04-15T08:02:03;10.30;;;9.30;;
2173;SDS011;1093;51.424;11.764;2023-04-15T08:04:30;6.20;;;4.63;;
2173;SDS011;1093;51.424;11.764;2023-04-15T08:06:57;6.97;;;4.70;;
2173;SDS011;1093;51.424;11.764;2023-04-15T08:09:24;7.27;;;6.10;;
2173;SDS011;1093;51.424;11.764;2023-04-15T08:11:51;7.47;;;5.67;;
2173;SDS011;1093;51.424;11.764;2023-04-15T08:14:18;6.50;;;5.50;;
2173;SDS011;1093;51.424;11.764;2023-04-15T08:16:45;8.03;;;6.47;;
2173;SDS011;1093;51.424;11.764;2023-04-15T08:19:13;7.33;;;6.10;;
2173;SDS011;1093;51.424;11.764;2023-04-15T08:21:40;8.10;;;5.60;;
2173;SDS011;1093;51.424;11.764;2023-04-15T08:24:07;11.20;;;5.93;;
2173;SDS011;1093;51.424;11.764;2023-04-15T08:26:35;9.90;;;8.80;;
2173;SDS011;1093;51.424;11.764;2023-04-15T08:29:02;8.93;;;7.13;;
2173;SDS011;1093;51.424;11.764;2023-04-15T08:31:28;10.23;;;8.77;;
2173;SDS011;1093;51.424;11.764;2023-04-15T08:33:55;27.50;;;25.00;;
2173;SDS011;1093;51.424;11.764;2023-04-15T08:36:24;14.90;;;9.20;;
2173;SDS011;1093;51.424;11.764;2023-04-15T08:38:52;14.80;;;10.03;;
2173;SDS011;1093;51.424;11.764;2023-04-15T08:41:20;12.80;;;8.40;;
2173;SDS011;1093;51.424;11.764;2023-04-15T08:43:51;16.53;;;7.00;;
2173;SDS011;1093;51.424;11.764;2023-04-15T08:46:19;16.17;;;9.63;;
2173;SDS011;1093;51.424;11.764;2023-04-15T08:48:47;11.40;;;8.40;;
2173;SDS011;1093;51.424;11.764;2023-04-15T08:51:15;17.63;;;10.70;;
2173;SDS011;1093;51.424;11.764;2023-04-15T08:53:43;15.83;;;10.00;;
2173;SDS011;1093;51.424;11.764;2023-04-15T08:56:11;15.40;;;10.50;;
2173;SDS011;1093;51.424;11.764;2023-04-15T08:58:40;23.80;;;15.10;;
2173;SDS011;1093;51.424;11.764;2023-04-15T09:01:08;11.77;;;8.37;;
2173;SDS011;1093;51.424;11.764;2023-04-15T09:03:36;13.70;;;8.90;;
2173;SDS011;1093;51.424;11.764;2023-04-15T09:06:04;11.77;;;7.87;;
2173;SDS011;1093;51.424;11.764;2023-04-15T09:08:31;14.63;;;8.90;;
2173;SDS011;1093;51.424;11.764;2023-04-15T09:10:59;17.83;;;8.90;;
2173;SDS011;1093;51.424;11.764;2023-04-15T09:13:26;17.93;;;10.60;;
2173;SDS011;1093;51.424;11.764;2023-04-15T09:15:53;16.17;;;9.80;;
2173;SDS011;1093;51.424;11.764;2023-04-15T09:18:27;16.77;;;10.43;;
2173;SDS011;1093;51.424;11.764;2023-04-15T09:20:54;18.87;;;11.23;;
2173;SDS011;1093;51.424;11.764;2023-04-15T09:23:22;19.40;;;12.00;;
2173;SDS011;1093;51.424;11.764;2023-04-15T09:25:48;16.80;;;11.87;;
2173;SDS011;1093;51.424;11.764;2023-04-15T09:28:22;19.60;;;13.37;;
2173;SDS011;1093;51.424;11.764;2023-04-15T09:30:52;20.80;;;12.90;;
2173;SDS011;1093;51.424;11.764;2023-04-15T09:33:21;23.00;;;12.47;;
2173;SDS011;1093;51.424;11.764;2023-04-15T09:35:55;24.50;;;13.93;;
2173;SDS011;1093;51.424;11.764;2023-04-15T09:38:24;26.57;;;16.47;;
2173;SDS011;1093;51.424;11.764;2023-04-15T09:40:50;25.70;;;15.47;;
2173;SDS011;1093;51.424;11.764;2023-04-15T09:43:18;27.87;;;13.77;;
2173;SDS011;1093;51.424;11.764;2023-04-15T09:45:46;25.20;;;14.77;;
2173;SDS011;1093;51.424;11.764;2023-04-15T09:48:15;24.60;;;15.00;;
2173;SDS011;1093;51.424;11.764;2023-04-15T09:50:44;29.13;;;16.50;;
2173;SDS011;1093;51.424;11.764;2023-04-15T09:53:14;28.70;;;16.73;;
2173;SDS011;1093;51.424;11.764;2023-04-15T09:55:42;36.37;;;19.27;;
2173;SDS011;1093;51.424;11.764;2023-04-15T09:58:16;26.80;;;16.40;;
2173;SDS011;1093;51.424;11.764;2023-04-15T10:00:45;30.37;;;17.90;;
2173;SDS011;1093;51.424;11.764;2023-04-15T10:03:14;38.30;;;20.27;;
2173;SDS011;1093;51.424;11.764;2023-04-15T10:05:44;35.33;;;18.87;;
2173;SDS011;1093;51.424;11.764;2023-04-15T10:08:15;36.57;;;19.33;;
2173;SDS011;1093;51.424;11.764;2023-04-15T10:10:43;31.33;;;19.10;;
2173;SDS011;1093;51.424;11.764;2023-04-15T10:13:11;45.67;;;22.20;;
2173;SDS011;1093;51.424;11.764;2023-04-15T10:15:41;36.60;;;20.10;;
2173;SDS011;1093;51.424;11.764;2023-04-15T10:18:11;38.70;;;21.47;;
2173;SDS011;1093;51.424;11.764;2023-04-15T10:20:40;45.00;;;20.80;;
2173;SDS011;1093;51.424;11.764;2023-04-15T10:23:08;39.90;;;20.67;;
2173;SDS011;1093;51.424;11.764;2023-04-15T10:25:36;49.03;;;23.97;;
2173;SDS011;1093;51.424;11.764;2023-04-15T10:28:04;44.07;;;23.50;;
2173;SDS011;1093;51.424;11.764;2023-04-15T10:30:32;39.47;;;24.17;;
2173;SDS011;1093;51.424;11.764;2023-04-15T10:33:00;44.30;;;23.70;;
2173;SDS011;1093;51.424;11.764;2023-04-15T10:35:29;49.50;;;27.33;;
2173;SDS011;1093;51.424;11.764;2023-04-15T10:37:57;55.77;;;27.10;;
2173;SDS011;1093;51.424;11.764;2023-04-15T10:40:25;58.30;;;32.63;;
2173;SDS011;1093;51.424;11.764;2023-04-15T10:42:53;49.37;;;25.97;;
2173;SDS011;1093;51.424;11.764;2023-04-15T10:45:21;49.10;;;24.40;;
2173;SDS011;1093;51.424;11.764;2023-04-15T10:47:51;43.70;;;26.97;;
2173;SDS011;1093;51.424;11.764;2023-04-15T10:50:25;44.90;;;23.47;;
2173;SDS011;1093;51.424;11.764;2023-04-15T10:52:54;53.17;;;26.93;;
2173;SDS011;1093;51.424;11.764;2023-04-15T10:55:22;44.87;;;22.40;;
2173;SDS011;1093;51.424;11.764;2023-04-15T10:57:50;49.47;;;29.07;;
2173;SDS011;1093;51.424;11.764;2023-04-15T11:00:19;46.97;;;25.33;;
2173;SDS011;1093;51.424;11.764;2023-04-15T11:02:51;57.20;;;27.17;;
2173;SDS011;1093;51.424;11.764;2023-04-15T11:05:22;43.80;;;24.50;;
2173;SDS011;1093;51.424;11.764;2023-04-15T11:08:17;52.63;;;29.20;;
2173;SDS011;1093;51.424;11.764;2023-04-15T11:10:49;48.53;;;27.17;;
2173;SDS011;1093;51.424;11.764;2023-04-15T11:13:20;50.23;;;26.43;;
2173;SDS011;1093;51.424;11.764;2023-04-15T11:15:59;54.67;;;28.23;;
2173;SDS011;1093;51.424;11.764;2023-04-15T11:18:31;55.83;;;28.30;;
2173;SDS011;1093;51.424;11.764;2023-04-15T11:21:01;48.30;;;27.33;;
2173;SDS011;1093;51.424;11.764;2023-04-15T11:23:30;54.93;;;27.90;;
2173;SDS011;1093;51.424;11.764;2023-04-15T11:25:59;57.67;;;30.33;;
2173;SDS011;1093;51.424;11.764;2023-04-15T11:28:29;60.77;;;30.23;;
2173;SDS011;1093;51.424;11.764;2023-04-15T11:30:56;61.77;;;30.17;;
2173;SDS011;1093;51.424;11.764;2023-04-15T11:33:23;56.53;;;32.10;;
2173;SDS011;1093;51.424;11.764;2023-04-15T11:35:51;57.80;;;30.73;;
2173;SDS011;1093;51.424;11.764;2023-04-15T11:38:20;59.10;;;33.33;;
2173;SDS011;1093;51.424;11.764;2023-04-15T11:40:47;51.60;;;29.87;;
2173;SDS011;1093;51.424;11.764;2023-04-15T11:43:16;61.40;;;31.43;;
2173;SDS011;1093;51.424;11.764;2023-04-15T11:45:48;61.33;;;30.77;;
2173;SDS011;1093;51.424;11.764;2023-04-15T11:48:17;56.53;;;29.70;;
2173;SDS011;1093;51.424;11.764;2023-04-15T11:50:45;54.37;;;30.80;;
2173;SDS011;1093;51.424;11.764;2023-04-15T11:53:17;52.07;;;30.13;;
2173;SDS011;1093;51.424;11.764;2023-04-15T11:55:47;59.93;;;31.47;;
2173;SDS011;1093;51.424;11.764;2023-04-15T11:58:16;90.47;;;51.23;;
2173;SDS011;1093;51.424;11.764;2023-04-15T12:00:47;66.67;;;40.07;;
2173;SDS011;1093;51.424;11.764;2023-04-15T12:03:17;51.93;;;34.03;;
2173;SDS011;1093;51.424;11.764;2023-04-15T12:06:02;77.93;;;43.17;;
2173;SDS011;1093;51.424;11.764;2023-04-15T12:11:29;88.17;;;50.17;;
2173;SDS011;1093;51.424;11.764;2023-04-15T12:14:04;139.10;;;75.87;;
2173;SDS011;1093;51.424;11.764;2023-04-15T12:16:33;56.50;;;33.00;;
2173;SDS011;1093;51.424;11.764;2023-04-15T12:19:04;59.53;;;35.43;;
2173;SDS011;1093;51.424;11.764;2023-04-15T12:21:33;49.63;;;33.20;;
2173;SDS011;1093;51.424;11.764;2023-04-15T12:24:02;56.30;;;33.50;;
2173;SDS011;1093;51.424;11.764;2023-04-15T12:26:32;61.73;;;41.67;;
2173;SDS011;1093;51.424;11.764;2023-04-15T12:29:01;55.10;;;35.17;;
2173;SDS011;1093;51.424;11.764;2023-04-15T12:31:29;61.90;;;38.87;;
2173;SDS011;1093;51.424;11.764;2023-04-15T12:33:56;61.67;;;36.70;;
2173;SDS011;1093;51.424;11.764;2023-04-15T12:36:26;59.43;;;41.87;;
2173;SDS011;1093;51.424;11.764;2023-04-15T12:38:55;54.40;;;35.20;;
2173;SDS011;1093;51.424;11.764;2023-04-15T12:41:22;55.47;;;36.13;;
2173;SDS011;1093;51.424;11.764;2023-04-15T12:43:50;61.30;;;39.50;;
2173;SDS011;1093;51.424;11.764;2023-04-15T12:46:17;54.57;;;37.90;;
2173;SDS011;1093;51.424;11.764;2023-04-15T12:48:44;55.10;;;41.43;;
2173;SDS011;1093;51.424;11.764;2023-04-15T12:51:11;71.87;;;47.37;;
2173;SDS011;1093;51.424;11.764;2023-04-15T12:53:38;65.97;;;46.90;;
2173;SDS011;1093;51.424;11.764;2023-04-15T12:56:05;59.60;;;43.10;;
2173;SDS011;1093;51.424;11.764;2023-04-15T12:58:32;65.67;;;47.07;;
2173;SDS011;1093;51.424;11.764;2023-04-15T13:01:00;62.57;;;42.17;;
2173;SDS011;1093;51.424;11.764;2023-04-15T13:03:27;66.20;;;42.70;;
2173;SDS011;1093;51.424;11.764;2023-04-15T13:05:54;61.80;;;39.43;;
2173;SDS011;1093;51.424;11.764;2023-04-15T13:08:21;53.80;;;35.10;;
2173;SDS011;1093;51.424;11.764;2023-04-15T13:10:48;43.77;;;29.07;;
2173;SDS011;1093;51.424;11.764;2023-04-15T13:13:15;52.07;;;31.17;;
2173;SDS011;1093;51.424;11.764;2023-04-15T13:15:41;48.03;;;34.33;;
2173;SDS011;1093;51.424;11.764;2023-04-15T13:18:11;43.93;;;29.67;;
2173;SDS011;1093;51.424;11.764;2023-04-15T13:20:38;35.83;;;25.23;;
2173;SDS011;1093;51.424;11.764;2023-04-15T13:23:04;40.57;;;29.43;;
2173;SDS011;1093;51.424;11.764;2023-04-15T13:25:32;38.57;;;29.40;;
2173;SDS011;1093;51.424;11.764;2023-04-15T13:27:58;42.30;;;30.10;;
2173;SDS011;1093;51.424;11.764;2023-04-15T13:30:26;36.70;;;27.37;;
2173;SDS011;1093;51.424;11.764;2023-04-15T13:32:53;39.80;;;26.50;;
2173;SDS011;1093;51.424;11.764;2023-04-15T13:35:21;36.83;;;28.60;;
2173;SDS011;1093;51.424;11.764;2023-04-15T13:37:48;37.53;;;26.20;;
2173;SDS011;1093;51.424;11.764;2023-04-15T13:40:15;38.30;;;28.73;;
2173;SDS011;1093;51.424;11.764;2023-04-15T13:42:41;37.33;;;26.90;;
2173;SDS011;1093;51.424;11.764;2023-04-15T13:45:08;49.13;;;36.10;;
2173;SDS011;1093;51.424;11.764;2023-04-15T13:47:36;39.47;;;30.83;;
2173;SDS011;1093;51.424;11.764;2023-04-15T13:50:04;33.93;;;26.00;;
2173;SDS011;1093;51.424;11.764;2023-04-15T13:52:32;39.30;;;28.70;;
2173;SDS011;1093;51.424;11.764;2023-04-15T13:55:01;39.40;;;30.27;;
2173;SDS011;1093;51.424;11.764;2023-04-15T13:57:27;39.37;;;29.67;;
2173;SDS011;1093;51.424;11.764;2023-04-15T13:59:54;35.77;;;26.70;;
2173;SDS011;1093;51.424;11.764;2023-04-15T14:02:21;46.53;;;33.80;;
2173;SDS011;1093;51.424;11.764;2023-04-15T14:04:48;35.97;;;27.10;;
2173;SDS011;1093;51.424;11.764;2023-04-15T14:07:15;55.47;;;40.43;;
2173;SDS011;1093;51.424;11.764;2023-04-15T14:09:43;42.30;;;30.53;;
2173;SDS011;1093;51.424;11.764;2023-04-15T14:12:10;44.13;;;32.00;;
2173;SDS011;1093;51.424;11.764;2023-04-15T14:14:36;36.63;;;27.77;;
2173;SDS011;1093;51.424;11.764;2023-04-15T14:17:03;36.80;;;30.40;;
2173;SDS011;1093;51.424;11.764;2023-04-15T14:19:30;51.97;;;37.20;;
2173;SDS011;1093;51.424;11.764;2023-04-15T14:21:57;27.70;;;21.77;;
2173;SDS011;1093;51.424;11.764;2023-04-15T14:24:24;33.67;;;26.67;;
2173;SDS011;1093;51.424;11.764;2023-04-15T14:26:52;22.70;;;17.90;;
2173;SDS011;1093;51.424;11.764;2023-04-15T14:29:20;19.47;;;16.57;;
2173;SDS011;1093;51.424;11.764;2023-04-15T14:31:47;21.80;;;17.73;;
2173;SDS011;1093;51.424;11.764;2023-04-15T14:34:14;23.43;;;18.80;;
2173;SDS011;1093;51.424;11.764;2023-04-15T14:36:42;21.67;;;17.23;;
2173;SDS011;1093;51.424;11.764;2023-04-15T14:39:09;22.33;;;18.10;;
2173;SDS011;1093;51.424;11.764;2023-04-15T14:41:38;23.97;;;18.77;;
2173;SDS011;1093;51.424;11.764;2023-04-15T14:44:06;22.00;;;18.20;;
2173;SDS011;1093;51.424;11.764;2023-04-15T14:46:35;22.17;;;18.13;;
2173;SDS011;1093;51.424;11.764;2023-04-15T14:49:02;22.93;;;18.10;;
2173;SDS011;1093;51.424;11.764;2023-04-15T14:51:29;22.17;;;17.77;;
2173;SDS011;1093;51.424;11.764;2023-04-15T14:53:56;23.13;;;19.70;;